Happy Valley, Nevada
Current Conditions -  °F | °C
As of 11:55 AM on Friday 31 Oct 2014 (Local Time) from KRNO Reporting Station
Scattered Clouds Scattered Clouds  
Wind Chill: 68°   Ceiling: Unl
Heat Index: 68°   Visibility: 10mi
Dew Point: 27°   Wind: 16mph
Humidity: 21%   Direction: 220°SW
Pressure: 29.81"   Gusts: 26mph
Location:  39.5386°N, 119.749°W
Report Text: KRNO 311855Z 22014G23KT 10SM FEW070 FEW110 SCT150 20/M03 A2981 RMK AO2 SLP054 ACSL DSNT ALQDS T02001028
Loading
Personal Weather Stations






























Interactive Weather Map New forecast layout! Learn more

10-Day Weather Forecast

Advertisements
Track Severe Weather on mobile